createdAt,value
2017-08-03T00:00:54.028Z,101373.40
2017-08-03T00:03:23.323Z,101379.47
2017-08-03T00:05:52.297Z,101370.77
2017-08-03T00:08:23.008Z,101371.87
2017-08-03T00:10:51.621Z,101369.63
2017-08-03T00:13:19.324Z,101359.75
2017-08-03T00:15:47.559Z,101367.59
2017-08-03T00:18:15.522Z,101367.31
2017-08-03T00:20:44.015Z,101362.16
2017-08-03T00:23:11.909Z,101355.75
2017-08-03T00:25:41.997Z,101345.91
2017-08-03T00:28:10.480Z,101336.98
2017-08-03T00:30:38.590Z,101322.84
2017-08-03T00:35:40.482Z,101321.31
2017-08-03T00:38:09.064Z,101314.02
2017-08-03T00:40:37.983Z,101314.38
2017-08-03T00:43:05.785Z,101307.91
2017-08-03T00:45:34.265Z,101300.69
2017-08-03T00:48:01.956Z,101300.31
2017-08-03T00:50:31.154Z,101291.63
2017-08-03T00:52:58.925Z,101301.31
2017-08-03T00:55:33.757Z,101309.61
2017-08-03T00:58:02.575Z,101314.92
2017-08-03T01:00:31.683Z,101312.19
2017-08-03T01:02:59.662Z,101322.78
2017-08-03T01:08:00.781Z,101322.13
2017-08-03T01:10:28.449Z,101324.63
2017-08-03T01:12:56.091Z,101316.00
2017-08-03T01:15:25.312Z,101308.78
2017-08-03T01:17:54.127Z,101310.48
2017-08-03T01:20:21.841Z,101311.27
2017-08-03T01:22:50.530Z,101308.45
2017-08-03T01:25:19.487Z,101309.03
2017-08-03T01:27:47.177Z,101297.71
2017-08-03T01:30:15.195Z,101300.66
2017-08-03T01:32:44.167Z,101300.78
2017-08-03T01:35:11.938Z,101299.45
2017-08-03T01:37:40.784Z,101298.70
2017-08-03T01:40:08.758Z,101302.56
2017-08-03T01:42:39.286Z,101294.72
2017-08-03T01:45:07.732Z,101285.88
2017-08-03T01:47:36.747Z,101288.63
2017-08-03T01:50:04.403Z,101292.05
2017-08-03T01:52:32.466Z,101281.11
2017-08-03T01:55:01.490Z,101281.06
2017-08-03T01:57:30.278Z,101279.66
2017-08-03T01:59:58.653Z,101269.80
2017-08-03T02:02:29.868Z,101272.08
2017-08-03T02:04:57.574Z,101270.38
2017-08-03T02:07:25.642Z,101276.06
2017-08-03T02:09:53.696Z,101266.82
2017-08-03T02:12:21.365Z,101265.78
2017-08-03T02:14:52.081Z,101260.14
2017-08-03T02:17:19.844Z,101259.68
2017-08-03T02:19:51.048Z,101260.09
2017-08-03T02:22:19.097Z,101250.06
2017-08-03T02:24:48.767Z,101254.29
2017-08-03T02:27:17.429Z,101253.46
2017-08-03T02:29:45.798Z,101253.27
2017-08-03T02:32:14.985Z,101241.19
2017-08-03T02:34:42.674Z,101231.57
2017-08-03T02:37:11.097Z,101232.16
2017-08-03T02:39:38.805Z,101228.01
2017-08-03T02:42:07.139Z,101231.90
2017-08-03T02:44:34.823Z,101223.86
2017-08-03T02:47:02.528Z,101218.80
2017-08-03T02:49:30.597Z,101216.94
2017-08-03T02:51:59.342Z,101231.61
2017-08-03T02:54:27.395Z,101235.47
2017-08-03T02:56:55.719Z,101229.91
2017-08-03T02:59:24.275Z,101222.66
2017-08-03T03:01:52.721Z,101220.88
2017-08-03T03:04:21.905Z,101223.48
2017-08-03T03:06:50.229Z,101220.26
2017-08-03T03:09:18.566Z,101217.03
2017-08-03T03:11:52.144Z,101217.03
2017-08-03T03:14:19.927Z,101217.77
2017-08-03T03:16:47.592Z,101208.02
2017-08-03T03:19:16.036Z,101211.47
2017-08-03T03:21:44.991Z,101211.13
2017-08-03T03:24:13.874Z,101199.25
2017-08-03T03:26:42.922Z,101190.63
2017-08-03T03:29:10.994Z,101189.17
2017-08-03T03:31:38.656Z,101187.56
2017-08-03T03:34:06.307Z,101179.02
2017-08-03T03:36:35.687Z,101182.13
2017-08-03T03:39:05.697Z,101183.75
2017-08-03T03:41:33.929Z,101172.47
2017-08-03T03:44:01.647Z,101158.64
2017-08-03T03:46:29.292Z,101160.17
2017-08-03T03:48:58.718Z,101149.56
2017-08-03T03:51:26.434Z,101159.83
2017-08-03T03:53:54.275Z,101145.75
2017-08-03T03:58:55.325Z,101136.22
2017-08-03T04:01:23.435Z,101137.00
2017-08-03T04:03:52.389Z,101138.91
2017-08-03T04:06:20.634Z,101136.59
2017-08-03T04:08:48.393Z,101137.18
2017-08-03T04:11:17.203Z,101138.00
2017-08-03T04:13:45.798Z,101132.70
2017-08-03T04:16:14.916Z,101135.11
2017-08-03T04:18:42.921Z,101128.94
2017-08-03T04:21:10.612Z,101118.58
2017-08-03T04:23:39.231Z,101114.44
2017-08-03T04:26:08.133Z,101111.83
2017-08-03T04:28:36.327Z,101102.67
2017-08-03T04:31:05.752Z,101104.33
2017-08-03T04:33:35.284Z,101096.09
2017-08-03T04:36:05.144Z,101087.22
2017-08-03T04:38:35.910Z,101083.91
2017-08-03T04:41:05.134Z,101087.14
2017-08-03T04:43:33.058Z,101075.50
2017-08-03T04:46:00.818Z,101067.70
2017-08-03T04:48:28.564Z,101042.22
2017-08-03T04:50:56.378Z,101053.15
2017-08-03T04:53:24.039Z,101071.09
2017-08-03T04:55:52.324Z,101065.87
2017-08-03T04:58:20.738Z,101057.20
2017-08-03T05:00:48.838Z,101062.30
2017-08-03T05:03:18.200Z,101054.00
2017-08-03T05:05:46.968Z,101047.32
2017-08-03T05:08:16.790Z,101051.46
2017-08-03T05:10:45.068Z,101050.75
2017-08-03T05:13:14.369Z,101053.39
2017-08-03T05:15:43.389Z,101044.24
2017-08-03T05:18:11.339Z,101046.61
2017-08-03T05:20:40.195Z,101041.10
2017-08-03T05:23:09.010Z,101037.63
2017-08-03T05:25:36.753Z,101034.75
2017-08-03T05:28:04.730Z,101023.52
2017-08-03T05:30:33.144Z,101024.59
2017-08-03T05:33:02.478Z,101027.43
2017-08-03T05:35:31.172Z,101032.80
2017-08-03T05:37:59.467Z,101031.44
2017-08-03T05:40:27.298Z,101028.67
2017-08-03T05:42:55.358Z,101024.03
2017-08-03T05:45:24.271Z,101033.65
2017-08-03T05:47:53.192Z,101033.31
2017-08-03T05:50:22.462Z,101025.30
2017-08-03T05:52:50.364Z,101027.67
2017-08-03T05:55:20.168Z,101020.69
2017-08-03T05:57:48.277Z,101020.59
2017-08-03T06:00:16.945Z,101025.86
2017-08-03T06:02:45.648Z,101023.59
2017-08-03T06:05:14.338Z,101013.27
2017-08-03T06:07:43.253Z,101005.19
2017-08-03T06:10:11.361Z,101002.36
2017-08-03T06:12:40.254Z,100999.23
2017-08-03T06:15:08.693Z,101002.73
2017-08-03T06:17:37.987Z,100999.61
2017-08-03T06:20:05.988Z,101004.22
2017-08-03T06:22:34.638Z,100989.53
2017-08-03T06:25:02.693Z,100991.77
2017-08-03T06:27:31.300Z,100986.13
2017-08-03T06:29:59.761Z,100989.53
2017-08-03T06:32:28.444Z,100981.02
2017-08-03T06:34:58.730Z,100973.38
2017-08-03T06:37:26.710Z,100970.73
2017-08-03T06:39:54.897Z,100974.24
2017-08-03T06:42:23.481Z,100959.27
2017-08-03T06:44:51.535Z,100964.86
2017-08-03T06:47:22.384Z,100965.84
2017-08-03T06:49:50.345Z,100957.79
2017-08-03T06:52:19.876Z,100960.23
2017-08-03T06:54:48.545Z,100950.77
2017-08-03T06:57:17.755Z,100951.59
2017-08-03T06:59:45.391Z,100952.63
2017-08-03T07:02:13.120Z,100954.12
2017-08-03T07:04:41.552Z,100948.34
2017-08-03T07:07:09.216Z,100943.55
2017-08-03T07:09:37.727Z,100942.99
2017-08-03T07:12:05.392Z,100933.68
2017-08-03T07:14:34.139Z,100936.91
2017-08-03T07:17:03.775Z,100940.91
2017-08-03T07:19:32.730Z,100947.38
2017-08-03T07:22:00.456Z,100948.32
2017-08-03T07:24:29.121Z,100953.16
2017-08-03T07:27:02.330Z,100953.62
2017-08-03T07:29:32.076Z,100938.30
2017-08-03T07:32:00.671Z,100926.64
2017-08-03T07:34:28.552Z,100930.03
2017-08-03T07:36:57.773Z,100925.92
2017-08-03T07:39:26.190Z,100923.12
2017-08-03T07:41:54.480Z,100925.20
2017-08-03T07:44:23.190Z,100915.80
2017-08-03T07:46:51.273Z,100919.98
2017-08-03T07:49:19.724Z,100923.17
2017-08-03T07:51:53.411Z,100931.41
2017-08-03T07:54:22.577Z,100922.98
2017-08-03T07:56:50.589Z,100925.66
2017-08-03T07:59:19.918Z,100926.63
2017-08-03T08:01:49.953Z,100924.38
2017-08-03T08:04:17.764Z,100916.84
2017-08-03T08:06:45.487Z,100905.44
2017-08-03T08:09:14.378Z,100893.22
2017-08-03T08:11:42.153Z,100894.50
2017-08-03T08:14:10.846Z,100884.58
2017-08-03T08:16:39.767Z,100875.87
2017-08-03T08:19:07.792Z,100874.14
2017-08-03T08:21:35.969Z,100861.66
2017-08-03T08:24:03.983Z,100859.80
2017-08-03T08:26:32.712Z,100854.14
2017-08-03T08:29:00.386Z,100853.73
2017-08-03T08:31:28.123Z,100847.20
2017-08-03T08:33:56.452Z,100844.69
2017-08-03T08:36:25.055Z,100834.97
2017-08-03T08:38:59.243Z,100840.70
2017-08-03T08:41:30.117Z,100820.84
2017-08-03T08:43:58.154Z,100823.34
2017-08-03T08:46:26.848Z,100821.66
2017-08-03T08:48:54.830Z,100825.41
2017-08-03T08:51:23.968Z,100821.92
2017-08-03T08:53:52.168Z,100804.95
2017-08-03T08:56:21.638Z,100805.46
2017-08-03T08:58:49.980Z,100802.88
2017-08-03T09:01:18.530Z,100800.48
2017-08-03T09:03:46.610Z,100799.57
2017-08-03T09:06:14.313Z,100789.50
2017-08-03T09:08:42.126Z,100778.95
2017-08-03T09:11:10.213Z,100775.25
2017-08-03T09:13:42.005Z,100769.73
2017-08-03T09:16:11.489Z,100766.45
2017-08-03T09:18:43.933Z,100761.29
2017-08-03T09:21:12.222Z,100746.41
2017-08-03T09:23:40.291Z,100749.02
2017-08-03T09:26:11.407Z,100751.70
2017-08-03T09:28:40.086Z,100739.94
2017-08-03T09:31:08.730Z,100725.63
2017-08-03T09:33:38.777Z,100728.97
2017-08-03T09:36:07.026Z,100716.38
2017-08-03T09:38:34.912Z,100714.41
2017-08-03T09:41:04.356Z,100717.26
2017-08-03T09:43:33.049Z,100718.83
2017-08-03T09:46:01.926Z,100707.19
2017-08-03T09:48:30.425Z,100694.48
2017-08-03T09:50:58.364Z,100693.84
2017-08-03T09:53:26.016Z,100694.27
2017-08-03T09:55:56.447Z,100683.70
2017-08-03T09:58:25.100Z,100679.45
2017-08-03T10:00:52.859Z,100675.69
2017-08-03T10:03:21.247Z,100681.70
2017-08-03T10:05:49.282Z,100674.27
2017-08-03T10:08:17.361Z,100662.78
2017-08-03T10:10:45.262Z,100656.13
2017-08-03T10:13:13.114Z,100657.31
2017-08-03T10:15:41.235Z,100641.69
2017-08-03T10:18:10.103Z,100647.19
2017-08-03T10:20:38.793Z,100651.76
2017-08-03T10:23:08.710Z,100653.47
2017-08-03T10:25:36.636Z,100643.94
2017-08-03T10:28:04.957Z,100637.20
2017-08-03T10:30:38.034Z,100656.36
2017-08-03T10:33:06.103Z,100653.46
2017-08-03T10:35:34.729Z,100653.98
2017-08-03T10:38:03.698Z,100654.56
2017-08-03T10:40:31.610Z,100651.50
2017-08-03T10:43:00.200Z,100661.35
2017-08-03T10:45:30.297Z,100656.72
2017-08-03T10:47:59.641Z,100650.66
2017-08-03T10:50:27.855Z,100643.36
2017-08-03T10:52:56.325Z,100633.33
2017-08-03T10:55:25.904Z,100645.62
2017-08-03T10:57:54.007Z,100647.69
2017-08-03T11:00:22.594Z,100635.12
2017-08-03T11:02:50.267Z,100606.13
2017-08-03T11:05:18.611Z,100601.33
2017-08-03T11:07:46.551Z,100593.42
2017-08-03T11:10:14.156Z,100588.11
2017-08-03T11:12:42.175Z,100583.52
2017-08-03T11:15:09.965Z,100578.40
2017-08-03T11:17:38.262Z,100580.64
2017-08-03T11:20:11.679Z,100570.32
2017-08-03T11:22:41.564Z,100576.33
2017-08-03T11:25:10.104Z,100563.03
2017-08-03T11:27:37.814Z,100554.55
2017-08-03T11:30:06.891Z,100552.23
2017-08-03T11:32:35.228Z,100553.72
2017-08-03T11:35:02.815Z,100544.85
2017-08-03T11:37:31.816Z,100540.53
2017-08-03T11:39:59.424Z,100531.02
2017-08-03T11:42:28.283Z,100528.26
2017-08-03T11:44:56.210Z,100510.00
2017-08-03T11:47:28.262Z,100513.88
2017-08-03T11:49:56.530Z,100512.34
2017-08-03T11:52:24.217Z,100503.14
2017-08-03T11:54:52.304Z,100505.59
2017-08-03T11:57:20.958Z,100518.72
2017-08-03T11:59:49.013Z,100511.66
2017-08-03T12:02:18.000Z,100510.52
2017-08-03T12:04:47.381Z,100506.67
2017-08-03T12:07:15.995Z,100502.64
2017-08-03T12:09:44.956Z,100513.72
2017-08-03T12:12:14.529Z,100504.38
2017-08-03T12:14:42.570Z,100510.97
2017-08-03T12:17:10.288Z,100494.59
2017-08-03T12:19:39.969Z,100510.61
2017-08-03T12:22:08.135Z,100504.94
2017-08-03T12:24:36.542Z,100492.77
2017-08-03T12:27:04.558Z,100482.80
2017-08-03T12:29:34.088Z,100485.38
2017-08-03T12:32:02.500Z,100478.33
2017-08-03T12:34:31.869Z,100468.03
2017-08-03T12:36:59.856Z,100454.36
2017-08-03T12:39:28.042Z,100447.17
2017-08-03T12:41:55.947Z,100452.09
2017-08-03T12:44:29.162Z,100452.18
2017-08-03T12:46:58.495Z,100457.34
2017-08-03T12:49:26.823Z,100450.05
2017-08-03T12:51:54.927Z,100440.21
2017-08-03T12:54:24.492Z,100442.35
2017-08-03T12:56:54.202Z,100443.51
2017-08-03T12:59:22.762Z,100441.50
2017-08-03T13:01:51.557Z,100434.50
2017-08-03T13:04:19.694Z,100429.20
2017-08-03T13:06:48.067Z,100421.59
2017-08-03T13:09:16.251Z,100412.70
2017-08-03T13:11:45.420Z,100415.63
2017-08-03T13:14:13.922Z,100423.50
2017-08-03T13:16:42.994Z,100423.22
2017-08-03T13:19:11.488Z,100423.81
2017-08-03T13:21:39.528Z,100425.53
2017-08-03T13:24:08.039Z,100426.61
2017-08-03T13:26:36.752Z,100422.98
2017-08-03T13:29:13.179Z,100425.80
2017-08-03T13:31:41.078Z,100430.36
2017-08-03T13:34:10.447Z,100423.81
2017-08-03T13:36:39.196Z,100430.74
2017-08-03T13:39:12.695Z,100424.09
2017-08-03T13:41:41.139Z,100426.55
2017-08-03T13:44:09.918Z,100428.89
2017-08-03T13:46:37.608Z,100427.08
2017-08-03T13:49:06.831Z,100427.72
2017-08-03T13:51:35.125Z,100418.81
2017-08-03T13:54:03.580Z,100424.08
2017-08-03T13:56:36.640Z,100413.67
2017-08-03T13:59:05.743Z,100421.33
2017-08-03T14:01:33.707Z,100412.39
2017-08-03T14:04:01.654Z,100417.73
2017-08-03T14:06:30.388Z,100413.97
2017-08-03T14:08:59.616Z,100405.05
2017-08-03T14:11:27.274Z,100425.68
2017-08-03T14:13:55.327Z,100421.95
2017-08-03T14:16:24.392Z,100422.20
2017-08-03T14:18:52.206Z,100420.47
2017-08-03T14:21:21.212Z,100419.97
2017-08-03T14:23:49.704Z,100425.59
2017-08-03T14:26:18.363Z,100414.64
2017-08-03T14:28:46.021Z,100424.96
2017-08-03T14:31:16.057Z,100411.44
2017-08-03T14:33:44.349Z,100424.27
2017-08-03T14:36:13.148Z,100425.32
2017-08-03T14:38:42.285Z,100409.14
2017-08-03T14:41:11.028Z,100426.55
2017-08-03T14:43:38.609Z,100432.81
2017-08-03T14:46:06.207Z,100436.31
2017-08-03T14:48:33.827Z,100450.49
2017-08-03T14:51:01.767Z,100444.91
2017-08-03T14:53:30.971Z,100443.94
2017-08-03T14:55:59.064Z,100449.38
2017-08-03T14:58:27.076Z,100451.16
2017-08-03T15:00:55.508Z,100446.30
2017-08-03T15:03:24.016Z,100449.86
2017-08-03T15:05:53.590Z,100443.56
2017-08-03T15:08:22.892Z,100444.23
2017-08-03T15:10:50.567Z,100444.94
2017-08-03T15:13:19.955Z,100447.39
2017-08-03T15:15:49.354Z,100448.78
2017-08-03T15:18:18.935Z,100451.95
2017-08-03T15:20:46.730Z,100454.28
2017-08-03T15:23:15.060Z,100449.58
2017-08-03T15:25:43.514Z,100453.11
2017-08-03T15:28:12.841Z,100452.16
2017-08-03T15:30:43.310Z,100456.12
2017-08-03T15:33:11.038Z,100480.02
2017-08-03T15:35:40.966Z,100473.27
2017-08-03T15:38:08.917Z,100471.05
2017-08-03T15:40:40.491Z,100476.86
2017-08-03T15:43:08.506Z,100481.70
2017-08-03T15:45:36.673Z,100483.64
2017-08-03T15:48:05.549Z,100481.80
2017-08-03T15:50:36.326Z,100487.38
2017-08-03T15:53:04.929Z,100495.92
2017-08-03T15:55:38.624Z,100487.48
2017-08-03T15:58:11.787Z,100478.52
2017-08-03T16:00:40.763Z,100482.80
2017-08-03T16:03:08.542Z,100480.95
2017-08-03T16:05:36.220Z,100494.11
2017-08-03T16:08:04.365Z,100482.85
2017-08-03T16:10:36.775Z,100481.52
2017-08-03T16:13:04.563Z,100502.52
2017-08-03T16:15:33.375Z,100512.14
2017-08-03T16:18:03.493Z,100520.27
2017-08-03T16:20:32.886Z,100524.20
2017-08-03T16:23:01.287Z,100528.70
2017-08-03T16:25:30.312Z,100537.73
2017-08-03T16:27:59.101Z,100525.78
2017-08-03T16:30:26.935Z,100540.34
2017-08-03T16:32:54.629Z,100552.64
2017-08-03T16:35:23.941Z,100563.61
2017-08-03T16:37:52.767Z,100566.91
2017-08-03T16:40:21.445Z,100557.19
2017-08-03T16:42:50.103Z,100565.02
2017-08-03T16:45:18.923Z,100562.23
2017-08-03T16:47:48.037Z,100555.32
2017-08-03T16:50:15.796Z,100563.38
2017-08-03T16:52:43.849Z,100562.27
2017-08-03T16:55:12.574Z,100564.49
2017-08-03T16:57:41.475Z,100571.02
2017-08-03T17:00:10.044Z,100574.65
2017-08-03T17:02:37.873Z,100575.48
2017-08-03T17:05:06.029Z,100576.14
2017-08-03T17:07:33.758Z,100576.77
2017-08-03T17:10:03.296Z,100578.55
2017-08-03T17:12:33.272Z,100578.73
2017-08-03T17:17:35.438Z,100579.80
2017-08-03T17:20:04.318Z,100577.78
2017-08-03T17:22:32.286Z,100584.70
2017-08-03T17:25:05.233Z,100586.95
2017-08-03T17:27:34.608Z,100595.46
2017-08-03T17:30:03.048Z,100584.91
2017-08-03T17:32:31.140Z,100593.84
2017-08-03T17:34:58.868Z,100594.65
2017-08-03T17:37:26.626Z,100601.12
2017-08-03T17:39:55.275Z,100591.78
2017-08-03T17:42:23.165Z,100593.23
2017-08-03T17:44:52.685Z,100588.17
2017-08-03T17:47:21.788Z,100595.10
2017-08-03T17:49:49.980Z,100603.25
2017-08-03T17:52:18.217Z,100601.99
2017-08-03T17:54:46.635Z,100604.45
2017-08-03T17:57:14.944Z,100600.58
2017-08-03T17:59:42.660Z,100607.41
2017-08-03T18:02:11.350Z,100608.58
2017-08-03T18:04:38.982Z,100609.21
2017-08-03T18:07:07.465Z,100613.19
2017-08-03T18:09:35.721Z,100607.73
2017-08-03T18:12:04.271Z,100600.61
2017-08-03T18:14:33.001Z,100607.41
2017-08-03T18:17:00.885Z,100618.80
2017-08-03T18:19:31.617Z,100624.94
2017-08-03T18:22:00.990Z,100625.00
2017-08-03T18:24:29.211Z,100621.27
2017-08-03T18:26:56.912Z,100619.47
2017-08-03T18:29:25.706Z,100622.33
2017-08-03T18:31:54.833Z,100628.59
2017-08-03T18:34:23.273Z,100621.52
2017-08-03T18:36:51.353Z,100627.86
2017-08-03T18:39:20.318Z,100631.11
2017-08-03T18:41:48.362Z,100642.59
2017-08-03T18:44:16.388Z,100643.30
2017-08-03T18:46:44.152Z,100642.95
2017-08-03T18:49:11.794Z,100650.33
2017-08-03T18:51:39.422Z,100654.88
2017-08-03T18:54:07.456Z,100659.49
2017-08-03T18:56:40.428Z,100650.53
2017-08-03T18:59:08.107Z,100649.02
2017-08-03T19:01:37.524Z,100665.08
2017-08-03T19:04:06.504Z,100658.70
2017-08-03T19:06:34.424Z,100659.88
2017-08-03T19:09:03.948Z,100666.84
2017-08-03T19:11:31.679Z,100672.38
2017-08-03T19:13:59.786Z,100673.91
2017-08-03T19:16:28.684Z,100678.25
2017-08-03T19:18:57.785Z,100679.72
2017-08-03T19:21:25.965Z,100683.23
2017-08-03T19:23:54.691Z,100689.34
2017-08-03T19:26:22.933Z,100687.05
2017-08-03T19:28:51.609Z,100689.84
2017-08-03T19:31:19.615Z,100692.99
2017-08-03T19:33:47.249Z,100702.34
2017-08-03T19:36:16.865Z,100706.29
2017-08-03T19:38:48.333Z,100708.03
2017-08-03T19:41:17.308Z,100711.14
2017-08-03T19:43:48.451Z,100711.00
2017-08-03T19:46:16.358Z,100716.50
2017-08-03T19:48:45.381Z,100730.88
2017-08-03T19:51:13.235Z,100724.73
2017-08-03T19:53:41.906Z,100734.73
2017-08-03T19:56:10.201Z,100738.50
2017-08-03T19:58:38.316Z,100738.89
2017-08-03T20:01:07.216Z,100733.11
2017-08-03T20:03:38.504Z,100741.70
2017-08-03T20:06:06.593Z,100747.59
2017-08-03T20:08:36.285Z,100739.10
2017-08-03T20:11:03.897Z,100730.86
2017-08-03T20:13:31.541Z,100729.64
2017-08-03T20:15:59.405Z,100735.27
2017-08-03T20:18:29.524Z,100734.93
2017-08-03T20:20:57.717Z,100732.98
2017-08-03T20:23:26.139Z,100728.44
2017-08-03T20:25:54.087Z,100731.34
2017-08-03T20:28:22.170Z,100737.28
2017-08-03T20:30:49.883Z,100730.87
2017-08-03T20:33:17.609Z,100735.39
2017-08-03T20:35:45.290Z,100733.67
2017-08-03T20:38:14.310Z,100740.03
2017-08-03T20:40:42.760Z,100735.55
2017-08-03T20:43:11.734Z,100735.61
2017-08-03T20:45:40.665Z,100738.02
2017-08-03T20:48:09.140Z,100744.05
2017-08-03T20:50:37.460Z,100742.00
2017-08-03T20:53:05.202Z,100744.62
2017-08-03T20:55:32.944Z,100742.95
2017-08-03T20:58:00.715Z,100747.70
2017-08-03T21:00:28.659Z,100750.86
2017-08-03T21:02:56.729Z,100754.39
2017-08-03T21:05:25.605Z,100753.95
2017-08-03T21:07:54.055Z,100757.09
2017-08-03T21:10:21.723Z,100757.16
2017-08-03T21:12:54.284Z,100757.33
2017-08-03T21:15:27.085Z,100760.06
2017-08-03T21:17:57.080Z,100759.42
2017-08-03T21:20:29.689Z,100763.83
2017-08-03T21:22:57.688Z,100760.33
2017-08-03T21:25:28.191Z,100757.90
2017-08-03T21:27:56.249Z,100758.36
2017-08-03T21:30:24.427Z,100767.91
2017-08-03T21:32:52.704Z,100764.36
2017-08-03T21:35:21.030Z,100755.69
2017-08-03T21:37:50.037Z,100744.08
2017-08-03T21:40:17.813Z,100742.90
2017-08-03T21:42:46.290Z,100745.87
2017-08-03T21:45:14.015Z,100740.47
2017-08-03T21:47:43.122Z,100747.64
2017-08-03T21:50:12.197Z,100741.73
2017-08-03T21:52:40.279Z,100740.06
2017-08-03T21:55:10.066Z,100736.95
2017-08-03T21:57:44.150Z,100737.31
2017-08-03T22:00:12.495Z,100733.87
2017-08-03T22:02:40.278Z,100730.46
2017-08-03T22:05:08.402Z,100733.69
2017-08-03T22:07:38.184Z,100739.72
2017-08-03T22:10:06.996Z,100735.95
2017-08-03T22:12:35.352Z,100737.63
2017-08-03T22:15:03.090Z,100739.30
2017-08-03T22:17:31.035Z,100741.41
2017-08-03T22:19:59.406Z,100754.38
2017-08-03T22:22:27.478Z,100739.08
2017-08-03T22:24:56.501Z,100743.55
2017-08-03T22:27:25.242Z,100736.97
2017-08-03T22:29:52.914Z,100731.68
2017-08-03T22:32:22.897Z,100736.36
2017-08-03T22:34:50.929Z,100739.47
2017-08-03T22:37:18.651Z,100732.29
2017-08-03T22:39:46.833Z,100734.67
2017-08-03T22:42:15.306Z,100729.07
2017-08-03T22:44:44.372Z,100734.98
2017-08-03T22:47:13.123Z,100734.57
2017-08-03T22:49:40.848Z,100734.44
2017-08-03T22:52:09.030Z,100736.25
2017-08-03T22:54:37.238Z,100740.53
2017-08-03T22:57:05.021Z,100737.88
2017-08-03T22:59:33.068Z,100738.29
2017-08-03T23:02:02.223Z,100747.65
2017-08-03T23:04:31.691Z,100732.72
2017-08-03T23:07:00.562Z,100730.53
2017-08-03T23:09:28.642Z,100727.88
2017-08-03T23:11:58.076Z,100721.94
2017-08-03T23:14:25.748Z,100720.80
2017-08-03T23:16:53.960Z,100720.58
2017-08-03T23:19:22.783Z,100716.89
2017-08-03T23:21:52.117Z,100716.23
2017-08-03T23:24:19.768Z,100707.98
2017-08-03T23:26:48.206Z,100711.55
2017-08-03T23:29:17.583Z,100706.45
2017-08-03T23:31:47.406Z,100710.02
2017-08-03T23:34:15.419Z,100706.59
2017-08-03T23:36:44.084Z,100710.27
2017-08-03T23:39:12.080Z,100710.11
2017-08-03T23:41:40.838Z,100705.31
2017-08-03T23:44:10.063Z,100704.49
2017-08-03T23:46:38.874Z,100704.44
2017-08-03T23:49:08.226Z,100710.20
2017-08-03T23:51:35.919Z,100707.92
2017-08-03T23:54:05.467Z,100712.56
2017-08-03T23:56:34.311Z,100709.94
2017-08-03T23:59:02.995Z,100713.02
